Aérodrome :
LOGIN :

S'inscrire | Disclaimer

   EN    FR    IT 

 










Légende :    VFR   VFR Marginal   IFR   IFR Intensif   IFR Très Intensif
Visi : 
Plafond : 
>= 8 km
>= 3000ft
5 à 8 km
1000 à 3000 ft
1500m à 5 km
500 à 1000 ft
800 à 1500m
200 à 500 ft
< 800m
< 200 ft
Symboles :   Orages  Brouillard  Fortes neiges  Fortes précipitations  Vent > 20 kt
SIGMETs :   Divers  Orages  Givrage  Turbulence  Onde Orograph.  Cendres Volcan.







- Altitude de l'aérodrome : 302 ft
- Voir les cartes d'approche


LFPM - Melun Villaroche

DERNIER METAR :
  • 220600Z AUTO 25014KT 9999 OVC028 10/07 Q1018

METARs EXPIRÉS :
  • 220530Z AUTO 25012KT 9999 FEW016 OVC026 10/07 Q1018
  • 220500Z AUTO 25013KT 9999 OVC026 10/08 Q1018
  • 220430Z AUTO 25011KT 9999 FEW016 OVC029 10/08 Q1018
  • 220400Z AUTO 25012KT 9999 FEW016 BKN023 OVC029 10/08 Q1018
  • 220330Z AUTO 26014KT 9999 SCT016 BKN021 OVC030 10/08 Q1018
  • 220300Z AUTO 26012KT 9999 BKN015 BKN022 OVC033 10/08 Q1018

Prévision TAF périmée.
ATIS : +33 1 64 14 28 44
Pas de NOTAMs connus pour ce terrain.
1 SIGMET publié pour la FIR Paris (LFFF) :
 
Turbulence forte
LFFF SIGMET 1 VALID 220300/220700 LFPW
LFFF PARIS FIR/UIR SEV TURB FCST WI N5000 W00015 - N5115 E00200 - N5045 E00315 - N4945 E00145 SFC/FL050 STNR NC=



MET'MAP, la Météo Aéronautique d'un coup d'oeil ! - Copyright ORBIFLY Décembre 2007 - Disclaimer

ORBIFLY MET'MAP TEAM :

Programmation & Développement : Alexandra Zaïnal
Conception & Développement : Baudouin d'Aumeries
Co-Programmation & Développement : Marc-Olivier Méhu
Soutien technique & logistique : Manuel Goepfert

Contact : metmap@orbifly.com




SOURCES & CREDITS :

   NOAA